Decoded Metar for OISS (SHIRAZ in IRAN) (IATA:SYZ) | Meteo·Mobile Aviation Weather
aviador You're here:

OISS Decoded Metar

SHIRAZ in IRAN
Report Time2019-03-19 22:30:00
UTC Time2019-03-19 22:48:20
Flight Rules vfr VFR
Wind320° at 04 kt
W.Decomp.*RWY 29: 3.6 kt HW 1.8 kt RCW
W.Rank320° ranks 9
Current wind is below 320° avg. (5.5)
Visibility9999 m
Phenomena:N/A
Clouds:N/A
Expected CloudBase > 4,400 ft AGL from Temp-Dew spread
CeilingNone
Temp08°C (ISA +3)
Dew Point-3°C (46% RH)
AAT4.2°C
QNH1015 hPa
Density Alt5,223 ft
Elevation4,892 ft
Report Wrong Elevation
Raw Report
METAR OISS 192230Z 32004KT CAVOK 08/M03 Q1015 A3000=

Extra information for OISS:More info

Metar Taf Metar & Taf Last 4 Metars F.Rules Stats Wind Profile Meteogram Temp Stats Airport Information Weather charts Add Link Nearby VenuesMetar ALERT Operation Metar Decoded Social comments